sensor_id;sensor_type;location;lat;lon;timestamp;P1;durP1;ratioP1;P2;durP2;ratioP2
69573;SDS011;62840;52.366;5.980;2023-02-16T00:00:47;31.38;;;14.45;;
69573;SDS011;62840;52.366;5.980;2023-02-16T00:03:14;34.00;;;14.75;;
69573;SDS011;62840;52.366;5.980;2023-02-16T00:05:44;33.03;;;14.80;;
69573;SDS011;62840;52.366;5.980;2023-02-16T00:08:11;28.88;;;13.70;;
69573;SDS011;62840;52.366;5.980;2023-02-16T00:10:37;28.17;;;14.25;;
69573;SDS011;62840;52.366;5.980;2023-02-16T00:13:09;31.42;;;13.60;;
69573;SDS011;62840;52.366;5.980;2023-02-16T00:15:52;33.57;;;15.00;;
69573;SDS011;62840;52.366;5.980;2023-02-16T00:18:19;30.33;;;13.55;;
69573;SDS011;62840;52.366;5.980;2023-02-16T00:20:48;30.08;;;13.82;;
69573;SDS011;62840;52.366;5.980;2023-02-16T00:23:14;31.50;;;13.85;;
69573;SDS011;62840;52.366;5.980;2023-02-16T00:25:40;31.73;;;15.33;;
69573;SDS011;62840;52.366;5.980;2023-02-16T00:28:10;31.10;;;13.20;;
69573;SDS011;62840;52.366;5.980;2023-02-16T00:30:40;29.50;;;13.88;;
69573;SDS011;62840;52.366;5.980;2023-02-16T00:33:08;29.70;;;13.15;;
69573;SDS011;62840;52.366;5.980;2023-02-16T00:35:40;30.80;;;14.40;;
69573;SDS011;62840;52.366;5.980;2023-02-16T00:38:08;31.35;;;13.93;;
69573;SDS011;62840;52.366;5.980;2023-02-16T00:40:34;31.65;;;13.50;;
69573;SDS011;62840;52.366;5.980;2023-02-16T00:43:00;27.75;;;13.65;;
69573;SDS011;62840;52.366;5.980;2023-02-16T00:45:26;30.43;;;14.53;;
69573;SDS011;62840;52.366;5.980;2023-02-16T00:47:51;34.50;;;15.27;;
69573;SDS011;62840;52.366;5.980;2023-02-16T00:50:19;30.30;;;14.47;;
69573;SDS011;62840;52.366;5.980;2023-02-16T00:52:52;30.45;;;13.32;;
69573;SDS011;62840;52.366;5.980;2023-02-16T00:55:21;34.13;;;15.45;;
69573;SDS011;62840;52.366;5.980;2023-02-16T00:57:51;30.85;;;15.25;;
69573;SDS011;62840;52.366;5.980;2023-02-16T01:00:21;34.85;;;15.18;;
69573;SDS011;62840;52.366;5.980;2023-02-16T01:02:52;31.03;;;13.97;;
69573;SDS011;62840;52.366;5.980;2023-02-16T01:05:21;33.15;;;15.75;;
69573;SDS011;62840;52.366;5.980;2023-02-16T01:07:47;34.00;;;15.77;;
69573;SDS011;62840;52.366;5.980;2023-02-16T01:12:42;35.53;;;16.17;;
69573;SDS011;62840;52.366;5.980;2023-02-16T01:15:09;32.25;;;15.95;;
69573;SDS011;62840;52.366;5.980;2023-02-16T01:17:39;37.30;;;16.52;;
69573;SDS011;62840;52.366;5.980;2023-02-16T01:20:09;34.67;;;16.50;;
69573;SDS011;62840;52.366;5.980;2023-02-16T01:22:39;35.57;;;16.80;;
69573;SDS011;62840;52.366;5.980;2023-02-16T01:25:05;34.60;;;16.23;;
69573;SDS011;62840;52.366;5.980;2023-02-16T01:27:32;34.85;;;15.73;;
69573;SDS011;62840;52.366;5.980;2023-02-16T01:30:03;35.83;;;16.13;;
69573;SDS011;62840;52.366;5.980;2023-02-16T01:32:32;36.17;;;15.70;;
69573;SDS011;62840;52.366;5.980;2023-02-16T01:34:58;33.08;;;15.38;;
69573;SDS011;62840;52.366;5.980;2023-02-16T01:37:24;40.63;;;17.90;;
69573;SDS011;62840;52.366;5.980;2023-02-16T01:39:49;32.67;;;16.65;;
69573;SDS011;62840;52.366;5.980;2023-02-16T01:42:18;33.93;;;16.33;;
69573;SDS011;62840;52.366;5.980;2023-02-16T01:45:00;33.37;;;16.27;;
69573;SDS011;62840;52.366;5.980;2023-02-16T01:47:36;35.08;;;16.17;;
69573;SDS011;62840;52.366;5.980;2023-02-16T01:50:14;36.47;;;16.55;;
69573;SDS011;62840;52.366;5.980;2023-02-16T01:52:46;33.45;;;15.77;;
69573;SDS011;62840;52.366;5.980;2023-02-16T01:55:21;33.50;;;16.55;;
69573;SDS011;62840;52.366;5.980;2023-02-16T01:57:54;33.87;;;15.70;;
69573;SDS011;62840;52.366;5.980;2023-02-16T02:00:29;34.78;;;16.48;;
69573;SDS011;62840;52.366;5.980;2023-02-16T02:03:32;32.15;;;15.88;;
69573;SDS011;62840;52.366;5.980;2023-02-16T02:05:59;36.60;;;16.40;;
69573;SDS011;62840;52.366;5.980;2023-02-16T02:08:26;37.87;;;17.67;;
69573;SDS011;62840;52.366;5.980;2023-02-16T02:11:04;36.80;;;16.45;;
69573;SDS011;62840;52.366;5.980;2023-02-16T02:13:40;36.85;;;16.52;;
69573;SDS011;62840;52.366;5.980;2023-02-16T02:16:18;37.15;;;16.45;;
69573;SDS011;62840;52.366;5.980;2023-02-16T02:18:46;37.20;;;16.70;;
69573;SDS011;62840;52.366;5.980;2023-02-16T02:21:20;35.37;;;15.97;;
69573;SDS011;62840;52.366;5.980;2023-02-16T02:27:38;37.15;;;17.05;;
69573;SDS011;62840;52.366;5.980;2023-02-16T02:30:15;35.72;;;16.83;;
69573;SDS011;62840;52.366;5.980;2023-02-16T02:33:06;37.87;;;16.73;;
69573;SDS011;62840;52.366;5.980;2023-02-16T02:36:07;38.88;;;16.83;;
69573;SDS011;62840;52.366;5.980;2023-02-16T02:38:48;40.55;;;18.60;;
69573;SDS011;62840;52.366;5.980;2023-02-16T02:41:27;36.45;;;16.50;;
69573;SDS011;62840;52.366;5.980;2023-02-16T02:44:05;37.17;;;16.92;;
69573;SDS011;62840;52.366;5.980;2023-02-16T02:46:34;35.10;;;16.03;;
69573;SDS011;62840;52.366;5.980;2023-02-16T02:49:02;38.30;;;17.85;;
69573;SDS011;62840;52.366;5.980;2023-02-16T02:51:28;35.33;;;17.58;;
69573;SDS011;62840;52.366;5.980;2023-02-16T02:53:55;36.65;;;16.48;;
69573;SDS011;62840;52.366;5.980;2023-02-16T02:56:26;38.00;;;16.70;;
69573;SDS011;62840;52.366;5.980;2023-02-16T02:58:52;37.40;;;17.50;;
69573;SDS011;62840;52.366;5.980;2023-02-16T03:01:28;35.78;;;16.83;;
69573;SDS011;62840;52.366;5.980;2023-02-16T03:03:59;34.30;;;16.73;;
69573;SDS011;62840;52.366;5.980;2023-02-16T03:06:29;37.58;;;17.00;;
69573;SDS011;62840;52.366;5.980;2023-02-16T03:09:01;34.78;;;16.75;;
69573;SDS011;62840;52.366;5.980;2023-02-16T03:11:32;36.78;;;17.13;;
69573;SDS011;62840;52.366;5.980;2023-02-16T03:13:58;34.22;;;16.65;;
69573;SDS011;62840;52.366;5.980;2023-02-16T03:16:33;36.03;;;17.83;;
69573;SDS011;62840;52.366;5.980;2023-02-16T03:19:04;35.17;;;16.58;;
69573;SDS011;62840;52.366;5.980;2023-02-16T03:21:35;38.42;;;16.98;;
69573;SDS011;62840;52.366;5.980;2023-02-16T03:24:02;34.25;;;16.50;;
69573;SDS011;62840;52.366;5.980;2023-02-16T03:26:33;32.63;;;15.57;;
69573;SDS011;62840;52.366;5.980;2023-02-16T03:29:00;37.23;;;17.70;;
69573;SDS011;62840;52.366;5.980;2023-02-16T03:31:29;36.10;;;17.10;;
69573;SDS011;62840;52.366;5.980;2023-02-16T03:34:01;34.15;;;16.50;;
69573;SDS011;62840;52.366;5.980;2023-02-16T03:36:29;37.60;;;17.92;;
69573;SDS011;62840;52.366;5.980;2023-02-16T03:38:59;40.08;;;18.00;;
69573;SDS011;62840;52.366;5.980;2023-02-16T03:41:30;32.07;;;15.93;;
69573;SDS011;62840;52.366;5.980;2023-02-16T03:43:58;35.95;;;16.83;;
69573;SDS011;62840;52.366;5.980;2023-02-16T03:46:25;34.28;;;16.13;;
69573;SDS011;62840;52.366;5.980;2023-02-16T03:48:53;40.40;;;17.08;;
69573;SDS011;62840;52.366;5.980;2023-02-16T03:51:19;35.55;;;16.85;;
69573;SDS011;62840;52.366;5.980;2023-02-16T03:53:45;33.63;;;16.50;;
69573;SDS011;62840;52.366;5.980;2023-02-16T03:56:10;31.25;;;16.30;;
69573;SDS011;62840;52.366;5.980;2023-02-16T03:58:36;34.83;;;15.93;;
69573;SDS011;62840;52.366;5.980;2023-02-16T04:01:02;37.45;;;16.52;;
69573;SDS011;62840;52.366;5.980;2023-02-16T04:03:28;34.77;;;16.73;;
69573;SDS011;62840;52.366;5.980;2023-02-16T04:05:56;36.55;;;17.10;;
69573;SDS011;62840;52.366;5.980;2023-02-16T04:08:22;32.95;;;16.42;;
69573;SDS011;62840;52.366;5.980;2023-02-16T04:10:48;35.40;;;17.17;;
69573;SDS011;62840;52.366;5.980;2023-02-16T04:13:14;36.70;;;17.33;;
69573;SDS011;62840;52.366;5.980;2023-02-16T04:15:39;40.20;;;17.40;;
69573;SDS011;62840;52.366;5.980;2023-02-16T04:18:05;35.90;;;16.90;;
69573;SDS011;62840;52.366;5.980;2023-02-16T04:20:32;33.97;;;15.98;;
69573;SDS011;62840;52.366;5.980;2023-02-16T04:23:02;38.83;;;17.45;;
69573;SDS011;62840;52.366;5.980;2023-02-16T04:25:28;32.67;;;16.55;;
69573;SDS011;62840;52.366;5.980;2023-02-16T04:27:54;38.75;;;17.73;;
69573;SDS011;62840;52.366;5.980;2023-02-16T04:30:21;33.10;;;16.30;;
69573;SDS011;62840;52.366;5.980;2023-02-16T04:32:49;36.63;;;16.37;;
69573;SDS011;62840;52.366;5.980;2023-02-16T04:35:16;36.72;;;16.88;;
69573;SDS011;62840;52.366;5.980;2023-02-16T04:37:43;39.35;;;17.35;;
69573;SDS011;62840;52.366;5.980;2023-02-16T04:40:12;35.08;;;16.17;;
69573;SDS011;62840;52.366;5.980;2023-02-16T04:42:41;37.45;;;15.98;;
69573;SDS011;62840;52.366;5.980;2023-02-16T04:45:09;36.22;;;16.10;;
69573;SDS011;62840;52.366;5.980;2023-02-16T04:47:36;32.17;;;15.52;;
69573;SDS011;62840;52.366;5.980;2023-02-16T04:50:02;37.63;;;16.98;;
69573;SDS011;62840;52.366;5.980;2023-02-16T04:52:29;35.47;;;16.53;;
69573;SDS011;62840;52.366;5.980;2023-02-16T04:54:54;37.03;;;16.95;;
69573;SDS011;62840;52.366;5.980;2023-02-16T04:57:23;35.78;;;16.55;;
69573;SDS011;62840;52.366;5.980;2023-02-16T04:59:49;36.67;;;17.27;;
69573;SDS011;62840;52.366;5.980;2023-02-16T05:02:15;34.72;;;17.27;;
69573;SDS011;62840;52.366;5.980;2023-02-16T05:04:41;39.33;;;17.10;;
69573;SDS011;62840;52.366;5.980;2023-02-16T05:07:07;38.78;;;17.80;;
69573;SDS011;62840;52.366;5.980;2023-02-16T05:09:32;36.17;;;17.73;;
69573;SDS011;62840;52.366;5.980;2023-02-16T05:11:58;37.42;;;17.30;;
69573;SDS011;62840;52.366;5.980;2023-02-16T05:14:27;35.03;;;17.70;;
69573;SDS011;62840;52.366;5.980;2023-02-16T05:16:55;33.70;;;16.65;;
69573;SDS011;62840;52.366;5.980;2023-02-16T05:19:21;34.80;;;16.85;;
69573;SDS011;62840;52.366;5.980;2023-02-16T05:21:46;35.63;;;17.27;;
69573;SDS011;62840;52.366;5.980;2023-02-16T05:24:12;36.85;;;17.30;;
69573;SDS011;62840;52.366;5.980;2023-02-16T05:26:38;36.57;;;17.67;;
69573;SDS011;62840;52.366;5.980;2023-02-16T05:29:04;38.65;;;18.10;;
69573;SDS011;62840;52.366;5.980;2023-02-16T05:31:33;36.20;;;16.83;;
69573;SDS011;62840;52.366;5.980;2023-02-16T05:33:58;33.25;;;16.13;;
69573;SDS011;62840;52.366;5.980;2023-02-16T05:36:24;36.30;;;17.87;;
69573;SDS011;62840;52.366;5.980;2023-02-16T05:38:50;37.42;;;17.42;;
69573;SDS011;62840;52.366;5.980;2023-02-16T05:41:16;35.13;;;17.33;;
69573;SDS011;62840;52.366;5.980;2023-02-16T05:43:42;40.58;;;17.75;;
69573;SDS011;62840;52.366;5.980;2023-02-16T05:46:07;35.53;;;16.85;;
69573;SDS011;62840;52.366;5.980;2023-02-16T05:48:36;36.63;;;16.52;;
69573;SDS011;62840;52.366;5.980;2023-02-16T05:51:02;35.28;;;16.50;;
69573;SDS011;62840;52.366;5.980;2023-02-16T05:53:28;36.22;;;16.58;;
69573;SDS011;62840;52.366;5.980;2023-02-16T05:55:54;34.53;;;16.83;;
69573;SDS011;62840;52.366;5.980;2023-02-16T05:58:20;37.10;;;18.00;;
69573;SDS011;62840;52.366;5.980;2023-02-16T06:00:45;44.33;;;18.53;;
69573;SDS011;62840;52.366;5.980;2023-02-16T06:03:11;34.15;;;17.10;;
69573;SDS011;62840;52.366;5.980;2023-02-16T06:05:40;33.63;;;16.17;;
69573;SDS011;62840;52.366;5.980;2023-02-16T06:08:05;32.35;;;15.52;;
69573;SDS011;62840;52.366;5.980;2023-02-16T06:10:31;36.72;;;16.88;;
69573;SDS011;62840;52.366;5.980;2023-02-16T06:12:57;33.70;;;17.47;;
69573;SDS011;62840;52.366;5.980;2023-02-16T06:15:22;37.75;;;17.52;;
69573;SDS011;62840;52.366;5.980;2023-02-16T06:17:48;34.43;;;17.27;;
69573;SDS011;62840;52.366;5.980;2023-02-16T06:20:14;38.22;;;17.10;;
69573;SDS011;62840;52.366;5.980;2023-02-16T06:22:42;36.83;;;17.63;;
69573;SDS011;62840;52.366;5.980;2023-02-16T06:25:08;35.88;;;17.45;;
69573;SDS011;62840;52.366;5.980;2023-02-16T06:27:34;37.55;;;17.95;;
69573;SDS011;62840;52.366;5.980;2023-02-16T06:30:00;35.57;;;17.63;;
69573;SDS011;62840;52.366;5.980;2023-02-16T06:32:26;37.35;;;17.58;;
69573;SDS011;62840;52.366;5.980;2023-02-16T06:34:51;36.88;;;18.10;;
69573;SDS011;62840;52.366;5.980;2023-02-16T06:37:17;36.93;;;18.63;;
69573;SDS011;62840;52.366;5.980;2023-02-16T06:39:46;38.20;;;18.40;;
69573;SDS011;62840;52.366;5.980;2023-02-16T06:42:11;37.67;;;17.77;;
69573;SDS011;62840;52.366;5.980;2023-02-16T06:44:37;38.43;;;18.33;;
69573;SDS011;62840;52.366;5.980;2023-02-16T06:47:03;33.95;;;17.73;;
69573;SDS011;62840;52.366;5.980;2023-02-16T06:49:29;41.10;;;18.23;;
69573;SDS011;62840;52.366;5.980;2023-02-16T06:51:55;37.47;;;18.03;;
69573;SDS011;62840;52.366;5.980;2023-02-16T06:54:20;37.40;;;18.65;;
69573;SDS011;62840;52.366;5.980;2023-02-16T06:56:49;39.17;;;18.67;;
69573;SDS011;62840;52.366;5.980;2023-02-16T06:59:14;37.97;;;18.50;;
69573;SDS011;62840;52.366;5.980;2023-02-16T07:01:40;38.83;;;18.65;;
69573;SDS011;62840;52.366;5.980;2023-02-16T07:04:06;35.93;;;17.53;;
69573;SDS011;62840;52.366;5.980;2023-02-16T07:06:32;38.20;;;18.65;;
69573;SDS011;62840;52.366;5.980;2023-02-16T07:08:58;37.80;;;18.30;;
69573;SDS011;62840;52.366;5.980;2023-02-16T07:11:24;38.15;;;19.20;;
69573;SDS011;62840;52.366;5.980;2023-02-16T07:13:53;38.10;;;18.13;;
69573;SDS011;62840;52.366;5.980;2023-02-16T07:16:18;35.95;;;18.30;;
69573;SDS011;62840;52.366;5.980;2023-02-16T07:18:44;36.85;;;18.48;;
69573;SDS011;62840;52.366;5.980;2023-02-16T07:21:10;38.70;;;19.17;;
69573;SDS011;62840;52.366;5.980;2023-02-16T07:23:36;43.15;;;18.95;;
69573;SDS011;62840;52.366;5.980;2023-02-16T07:26:02;38.53;;;19.67;;
69573;SDS011;62840;52.366;5.980;2023-02-16T07:28:28;38.90;;;18.73;;
69573;SDS011;62840;52.366;5.980;2023-02-16T07:30:57;41.63;;;19.13;;
69573;SDS011;62840;52.366;5.980;2023-02-16T07:33:22;37.35;;;19.10;;
69573;SDS011;62840;52.366;5.980;2023-02-16T07:35:48;43.20;;;20.30;;
69573;SDS011;62840;52.366;5.980;2023-02-16T07:38:14;43.22;;;20.52;;
69573;SDS011;62840;52.366;5.980;2023-02-16T07:40:40;40.27;;;20.47;;
69573;SDS011;62840;52.366;5.980;2023-02-16T07:43:06;40.55;;;19.08;;
69573;SDS011;62840;52.366;5.980;2023-02-16T07:45:32;41.03;;;20.20;;
69573;SDS011;62840;52.366;5.980;2023-02-16T07:48:00;39.77;;;18.97;;
69573;SDS011;62840;52.366;5.980;2023-02-16T07:50:27;43.42;;;19.65;;
69573;SDS011;62840;52.366;5.980;2023-02-16T07:52:53;40.70;;;19.48;;
69573;SDS011;62840;52.366;5.980;2023-02-16T07:55:18;38.83;;;19.53;;
69573;SDS011;62840;52.366;5.980;2023-02-16T07:57:44;39.95;;;19.52;;
69573;SDS011;62840;52.366;5.980;2023-02-16T08:00:10;44.23;;;20.90;;
69573;SDS011;62840;52.366;5.980;2023-02-16T08:02:37;40.70;;;21.25;;
69573;SDS011;62840;52.366;5.980;2023-02-16T08:05:07;43.65;;;20.85;;
69573;SDS011;62840;52.366;5.980;2023-02-16T08:07:33;42.28;;;19.80;;
69573;SDS011;62840;52.366;5.980;2023-02-16T08:09:58;41.30;;;19.93;;
69573;SDS011;62840;52.366;5.980;2023-02-16T08:12:24;39.60;;;19.13;;
69573;SDS011;62840;52.366;5.980;2023-02-16T08:14:50;39.57;;;19.80;;
69573;SDS011;62840;52.366;5.980;2023-02-16T08:17:15;41.92;;;19.75;;
69573;SDS011;62840;52.366;5.980;2023-02-16T08:19:41;41.00;;;20.07;;
69573;SDS011;62840;52.366;5.980;2023-02-16T08:22:09;44.00;;;19.40;;
69573;SDS011;62840;52.366;5.980;2023-02-16T08:24:35;42.83;;;21.10;;
69573;SDS011;62840;52.366;5.980;2023-02-16T08:27:01;38.40;;;19.63;;
69573;SDS011;62840;52.366;5.980;2023-02-16T08:29:30;40.00;;;18.75;;
69573;SDS011;62840;52.366;5.980;2023-02-16T08:31:56;40.67;;;19.67;;
69573;SDS011;62840;52.366;5.980;2023-02-16T08:34:22;40.53;;;19.10;;
69573;SDS011;62840;52.366;5.980;2023-02-16T08:36:51;39.30;;;17.95;;
69573;SDS011;62840;52.366;5.980;2023-02-16T08:39:22;42.65;;;19.65;;
69573;SDS011;62840;52.366;5.980;2023-02-16T08:41:49;40.83;;;19.83;;
69573;SDS011;62840;52.366;5.980;2023-02-16T08:44:17;42.85;;;20.05;;
69573;SDS011;62840;52.366;5.980;2023-02-16T08:46:45;41.97;;;19.77;;
69573;SDS011;62840;52.366;5.980;2023-02-16T08:49:13;40.05;;;18.90;;
69573;SDS011;62840;52.366;5.980;2023-02-16T08:51:41;43.80;;;19.00;;
69573;SDS011;62840;52.366;5.980;2023-02-16T08:54:12;37.97;;;18.70;;
69573;SDS011;62840;52.366;5.980;2023-02-16T08:56:43;43.50;;;19.85;;
69573;SDS011;62840;52.366;5.980;2023-02-16T08:59:09;41.35;;;20.20;;
69573;SDS011;62840;52.366;5.980;2023-02-16T09:01:35;41.38;;;19.58;;
69573;SDS011;62840;52.366;5.980;2023-02-16T09:04:01;38.87;;;19.87;;
69573;SDS011;62840;52.366;5.980;2023-02-16T09:06:27;39.88;;;20.15;;
69573;SDS011;62840;52.366;5.980;2023-02-16T09:08:53;41.55;;;19.58;;
69573;SDS011;62840;52.366;5.980;2023-02-16T09:11:21;37.87;;;18.13;;
69573;SDS011;62840;52.366;5.980;2023-02-16T09:13:51;40.45;;;20.40;;
69573;SDS011;62840;52.366;5.980;2023-02-16T09:16:17;40.17;;;18.75;;
69573;SDS011;62840;52.366;5.980;2023-02-16T09:18:47;39.47;;;19.35;;
69573;SDS011;62840;52.366;5.980;2023-02-16T09:21:16;42.55;;;19.50;;
69573;SDS011;62840;52.366;5.980;2023-02-16T09:23:48;39.50;;;19.67;;
69573;SDS011;62840;52.366;5.980;2023-02-16T09:26:16;40.53;;;18.67;;
69573;SDS011;62840;52.366;5.980;2023-02-16T09:28:44;44.10;;;19.15;;
69573;SDS011;62840;52.366;5.980;2023-02-16T09:31:14;39.22;;;20.15;;
69573;SDS011;62840;52.366;5.980;2023-02-16T09:33:42;42.50;;;20.17;;
69573;SDS011;62840;52.366;5.980;2023-02-16T09:36:09;38.77;;;19.03;;
69573;SDS011;62840;52.366;5.980;2023-02-16T09:38:37;38.30;;;18.92;;
69573;SDS011;62840;52.366;5.980;2023-02-16T09:41:04;38.63;;;18.90;;
69573;SDS011;62840;52.366;5.980;2023-02-16T09:43:34;41.42;;;19.63;;
69573;SDS011;62840;52.366;5.980;2023-02-16T09:46:10;37.93;;;18.73;;
69573;SDS011;62840;52.366;5.980;2023-02-16T09:48:45;45.92;;;20.13;;
69573;SDS011;62840;52.366;5.980;2023-02-16T09:51:14;40.88;;;19.58;;
69573;SDS011;62840;52.366;5.980;2023-02-16T09:53:49;39.95;;;18.75;;
69573;SDS011;62840;52.366;5.980;2023-02-16T09:56:23;38.30;;;19.15;;
69573;SDS011;62840;52.366;5.980;2023-02-16T09:58:58;37.27;;;18.90;;
69573;SDS011;62840;52.366;5.980;2023-02-16T10:01:38;38.10;;;18.52;;
69573;SDS011;62840;52.366;5.980;2023-02-16T10:04:21;40.88;;;19.60;;
69573;SDS011;62840;52.366;5.980;2023-02-16T10:07:00;38.50;;;18.05;;
69573;SDS011;62840;52.366;5.980;2023-02-16T10:09:46;41.55;;;19.92;;
69573;SDS011;62840;52.366;5.980;2023-02-16T10:12:19;37.43;;;18.97;;
69573;SDS011;62840;52.366;5.980;2023-02-16T10:14:51;41.67;;;20.25;;
69573;SDS011;62840;52.366;5.980;2023-02-16T10:17:27;42.78;;;19.92;;
69573;SDS011;62840;52.366;5.980;2023-02-16T10:20:03;39.55;;;19.85;;
69573;SDS011;62840;52.366;5.980;2023-02-16T10:22:38;43.85;;;20.15;;
69573;SDS011;62840;52.366;5.980;2023-02-16T10:25:12;40.47;;;19.57;;
69573;SDS011;62840;52.366;5.980;2023-02-16T10:27:46;43.15;;;19.13;;
69573;SDS011;62840;52.366;5.980;2023-02-16T10:30:21;41.70;;;19.92;;
69573;SDS011;62840;52.366;5.980;2023-02-16T10:32:54;39.65;;;20.25;;
69573;SDS011;62840;52.366;5.980;2023-02-16T10:35:25;43.40;;;20.50;;
69573;SDS011;62840;52.366;5.980;2023-02-16T10:38:06;42.37;;;19.93;;
69573;SDS011;62840;52.366;5.980;2023-02-16T10:40:45;41.38;;;20.75;;
69573;SDS011;62840;52.366;5.980;2023-02-16T10:43:20;43.53;;;20.58;;
69573;SDS011;62840;52.366;5.980;2023-02-16T10:46:03;42.30;;;20.85;;
69573;SDS011;62840;52.366;5.980;2023-02-16T10:48:32;42.53;;;20.80;;
69573;SDS011;62840;52.366;5.980;2023-02-16T10:50:59;38.63;;;20.13;;
69573;SDS011;62840;52.366;5.980;2023-02-16T10:53:33;42.53;;;20.48;;
69573;SDS011;62840;52.366;5.980;2023-02-16T10:56:25;43.10;;;20.35;;
69573;SDS011;62840;52.366;5.980;2023-02-16T10:59:15;39.83;;;19.38;;
69573;SDS011;62840;52.366;5.980;2023-02-16T11:01:45;42.53;;;19.42;;
69573;SDS011;62840;52.366;5.980;2023-02-16T11:07:05;40.05;;;20.48;;
69573;SDS011;62840;52.366;5.980;2023-02-16T11:09:34;40.30;;;20.70;;
69573;SDS011;62840;52.366;5.980;2023-02-16T11:12:00;40.67;;;19.88;;
69573;SDS011;62840;52.366;5.980;2023-02-16T11:14:38;42.80;;;20.33;;
69573;SDS011;62840;52.366;5.980;2023-02-16T11:17:11;40.77;;;20.27;;
69573;SDS011;62840;52.366;5.980;2023-02-16T11:19:47;40.72;;;20.45;;
69573;SDS011;62840;52.366;5.980;2023-02-16T11:22:25;40.03;;;19.30;;
69573;SDS011;62840;52.366;5.980;2023-02-16T11:24:55;41.42;;;19.10;;
69573;SDS011;62840;52.366;5.980;2023-02-16T11:27:27;43.40;;;20.00;;
69573;SDS011;62840;52.366;5.980;2023-02-16T11:32:42;41.22;;;21.13;;
69573;SDS011;62840;52.366;5.980;2023-02-16T11:35:12;36.88;;;19.45;;
69573;SDS011;62840;52.366;5.980;2023-02-16T11:37:39;40.80;;;19.87;;
69573;SDS011;62840;52.366;5.980;2023-02-16T11:40:06;44.40;;;21.10;;
69573;SDS011;62840;52.366;5.980;2023-02-16T11:42:47;43.63;;;20.45;;
69573;SDS011;62840;52.366;5.980;2023-02-16T11:45:23;44.55;;;20.40;;
69573;SDS011;62840;52.366;5.980;2023-02-16T11:47:52;44.17;;;20.83;;
69573;SDS011;62840;52.366;5.980;2023-02-16T11:50:24;41.92;;;19.48;;
69573;SDS011;62840;52.366;5.980;2023-02-16T11:52:52;44.78;;;21.52;;
69573;SDS011;62840;52.366;5.980;2023-02-16T11:55:23;43.20;;;20.88;;
69573;SDS011;62840;52.366;5.980;2023-02-16T11:57:53;43.58;;;21.48;;
69573;SDS011;62840;52.366;5.980;2023-02-16T12:00:20;43.20;;;20.00;;
69573;SDS011;62840;52.366;5.980;2023-02-16T12:03:01;44.53;;;20.90;;
69573;SDS011;62840;52.366;5.980;2023-02-16T12:05:49;45.30;;;21.52;;
69573;SDS011;62840;52.366;5.980;2023-02-16T12:08:36;40.13;;;20.23;;
69573;SDS011;62840;52.366;5.980;2023-02-16T12:11:24;45.88;;;20.48;;
69573;SDS011;62840;52.366;5.980;2023-02-16T12:14:12;40.40;;;20.48;;
69573;SDS011;62840;52.366;5.980;2023-02-16T12:16:53;46.28;;;20.42;;
69573;SDS011;62840;52.366;5.980;2023-02-16T12:19:32;41.78;;;20.40;;
69573;SDS011;62840;52.366;5.980;2023-02-16T12:22:14;45.20;;;20.30;;
69573;SDS011;62840;52.366;5.980;2023-02-16T12:25:08;44.90;;;20.80;;
69573;SDS011;62840;52.366;5.980;2023-02-16T12:27:51;43.95;;;20.08;;
69573;SDS011;62840;52.366;5.980;2023-02-16T12:30:32;45.58;;;21.00;;
69573;SDS011;62840;52.366;5.980;2023-02-16T12:33:18;44.70;;;20.70;;
69573;SDS011;62840;52.366;5.980;2023-02-16T12:36:01;39.67;;;19.53;;
69573;SDS011;62840;52.366;5.980;2023-02-16T12:38:57;39.75;;;20.25;;
69573;SDS011;62840;52.366;5.980;2023-02-16T12:41:43;44.38;;;20.38;;
69573;SDS011;62840;52.366;5.980;2023-02-16T12:44:29;42.78;;;20.35;;
69573;SDS011;62840;52.366;5.980;2023-02-16T12:47:03;41.83;;;19.70;;
69573;SDS011;62840;52.366;5.980;2023-02-16T12:49:39;41.07;;;20.00;;
69573;SDS011;62840;52.366;5.980;2023-02-16T12:52:19;37.85;;;18.67;;
69573;SDS011;62840;52.366;5.980;2023-02-16T12:55:06;39.17;;;19.42;;
69573;SDS011;62840;52.366;5.980;2023-02-16T12:57:44;38.45;;;18.75;;
69573;SDS011;62840;52.366;5.980;2023-02-16T13:00:20;39.83;;;19.70;;
69573;SDS011;62840;52.366;5.980;2023-02-16T13:02:57;43.27;;;19.90;;
69573;SDS011;62840;52.366;5.980;2023-02-16T13:05:41;40.75;;;19.65;;
69573;SDS011;62840;52.366;5.980;2023-02-16T13:08:13;38.00;;;18.48;;
69573;SDS011;62840;52.366;5.980;2023-02-16T13:10:53;39.15;;;18.95;;
69573;SDS011;62840;52.366;5.980;2023-02-16T13:13:28;40.55;;;20.27;;
69573;SDS011;62840;52.366;5.980;2023-02-16T13:16:00;36.93;;;19.57;;
69573;SDS011;62840;52.366;5.980;2023-02-16T13:18:35;37.83;;;17.80;;
69573;SDS011;62840;52.366;5.980;2023-02-16T13:21:09;38.55;;;18.60;;
69573;SDS011;62840;52.366;5.980;2023-02-16T13:23:53;35.60;;;18.40;;
69573;SDS011;62840;52.366;5.980;2023-02-16T13:26:51;37.83;;;18.27;;
69573;SDS011;62840;52.366;5.980;2023-02-16T13:32:34;34.15;;;17.05;;
69573;SDS011;62840;52.366;5.980;2023-02-16T13:35:26;34.90;;;17.35;;
69573;SDS011;62840;52.366;5.980;2023-02-16T13:38:13;33.45;;;17.52;;
69573;SDS011;62840;52.366;5.980;2023-02-16T13:41:05;38.85;;;18.05;;
69573;SDS011;62840;52.366;5.980;2023-02-16T13:44:01;36.60;;;16.93;;
69573;SDS011;62840;52.366;5.980;2023-02-16T13:46:36;31.73;;;17.05;;
69573;SDS011;62840;52.366;5.980;2023-02-16T13:49:12;35.72;;;17.40;;
69573;SDS011;62840;52.366;5.980;2023-02-16T13:51:56;35.00;;;17.17;;
69573;SDS011;62840;52.366;5.980;2023-02-16T13:54:25;34.35;;;16.88;;
69573;SDS011;62840;52.366;5.980;2023-02-16T13:56:55;35.10;;;17.40;;
69573;SDS011;62840;52.366;5.980;2023-02-16T14:05:22;34.63;;;17.80;;
69573;SDS011;62840;52.366;5.980;2023-02-16T14:11:01;32.35;;;16.33;;
69573;SDS011;62840;52.366;5.980;2023-02-16T14:13:46;30.98;;;16.75;;
69573;SDS011;62840;52.366;5.980;2023-02-16T14:16:28;32.10;;;15.98;;
69573;SDS011;62840;52.366;5.980;2023-02-16T14:18:56;32.40;;;15.38;;
69573;SDS011;62840;52.366;5.980;2023-02-16T14:21:28;32.92;;;15.88;;
69573;SDS011;62840;52.366;5.980;2023-02-16T14:24:01;31.60;;;15.48;;
69573;SDS011;62840;52.366;5.980;2023-02-16T14:26:32;31.30;;;15.98;;
69573;SDS011;62840;52.366;5.980;2023-02-16T14:29:17;29.67;;;15.00;;
69573;SDS011;62840;52.366;5.980;2023-02-16T14:31:55;29.60;;;14.68;;
69573;SDS011;62840;52.366;5.980;2023-02-16T14:34:31;29.70;;;14.90;;
69573;SDS011;62840;52.366;5.980;2023-02-16T14:37:08;28.10;;;14.50;;
69573;SDS011;62840;52.366;5.980;2023-02-16T14:39:52;30.75;;;15.68;;
69573;SDS011;62840;52.366;5.980;2023-02-16T14:42:21;30.40;;;15.40;;
69573;SDS011;62840;52.366;5.980;2023-02-16T14:45:01;29.65;;;14.82;;
69573;SDS011;62840;52.366;5.980;2023-02-16T14:47:51;31.58;;;16.85;;
69573;SDS011;62840;52.366;5.980;2023-02-16T14:50:35;31.35;;;15.20;;
69573;SDS011;62840;52.366;5.980;2023-02-16T14:53:22;31.58;;;15.23;;
69573;SDS011;62840;52.366;5.980;2023-02-16T14:56:40;28.60;;;14.73;;
69573;SDS011;62840;52.366;5.980;2023-02-16T14:59:18;30.02;;;15.25;;
69573;SDS011;62840;52.366;5.980;2023-02-16T15:01:54;28.25;;;15.27;;
69573;SDS011;62840;52.366;5.980;2023-02-16T15:04:30;29.05;;;14.95;;
69573;SDS011;62840;52.366;5.980;2023-02-16T15:06:59;28.95;;;14.82;;
69573;SDS011;62840;52.366;5.980;2023-02-16T15:09:29;26.80;;;13.55;;